sensor_id;sensor_type;location;lat;lon;timestamp;pressure;altitude;pressure_sealevel;temperature;humidity
28312;BME280;15572;48.810;9.148;2022-07-23T00:03:33;98071.00;;;25.24;54.42
28312;BME280;15572;48.810;9.148;2022-07-23T00:08:29;98080.47;;;25.17;54.67
28312;BME280;15572;48.810;9.148;2022-07-23T00:13:26;98068.63;;;25.12;55.32
28312;BME280;15572;48.810;9.148;2022-07-23T00:18:23;98064.81;;;25.08;55.69
28312;BME280;15572;48.810;9.148;2022-07-23T00:23:21;98062.72;;;24.95;56.47
28312;BME280;15572;48.810;9.148;2022-07-23T00:28:17;98073.41;;;24.78;57.50
28312;BME280;15572;48.810;9.148;2022-07-23T00:33:14;98056.41;;;24.60;58.63
28312;BME280;15572;48.810;9.148;2022-07-23T00:38:11;98052.28;;;24.53;59.33
28312;BME280;15572;48.810;9.148;2022-07-23T00:43:09;98048.31;;;24.35;60.54
28312;BME280;15572;48.810;9.148;2022-07-23T00:48:05;98047.03;;;24.22;62.74
28312;BME280;15572;48.810;9.148;2022-07-23T00:53:02;98033.53;;;24.11;62.73
28312;BME280;15572;48.810;9.148;2022-07-23T00:57:59;98026.75;;;23.93;63.36
28312;BME280;15572;48.810;9.148;2022-07-23T01:02:57;98029.13;;;24.05;62.00
28312;BME280;15572;48.810;9.148;2022-07-23T01:07:54;98041.13;;;23.90;62.41
28312;BME280;15572;48.810;9.148;2022-07-23T01:12:50;98040.59;;;23.83;63.79
28312;BME280;15572;48.810;9.148;2022-07-23T01:17:47;98032.16;;;23.64;65.45
28312;BME280;15572;48.810;9.148;2022-07-23T01:22:45;97986.34;;;23.58;65.59
28312;BME280;15572;48.810;9.148;2022-07-23T01:27:42;98015.38;;;23.56;65.09
28312;BME280;15572;48.810;9.148;2022-07-23T01:32:38;98017.59;;;23.54;64.82
28312;BME280;15572;48.810;9.148;2022-07-23T01:37:35;98003.19;;;23.57;65.13
28312;BME280;15572;48.810;9.148;2022-07-23T01:42:33;97985.56;;;23.47;65.85
28312;BME280;15572;48.810;9.148;2022-07-23T01:47:31;97990.25;;;23.47;66.14
28312;BME280;15572;48.810;9.148;2022-07-23T01:52:28;98002.41;;;23.46;65.91
28312;BME280;15572;48.810;9.148;2022-07-23T01:57:24;97993.56;;;23.44;65.78
28312;BME280;15572;48.810;9.148;2022-07-23T02:02:22;97993.84;;;23.42;65.71
28312;BME280;15572;48.810;9.148;2022-07-23T02:07:19;98045.50;;;23.37;66.97
28312;BME280;15572;48.810;9.148;2022-07-23T02:12:15;98041.72;;;23.18;68.19
28312;BME280;15572;48.810;9.148;2022-07-23T02:17:12;98043.16;;;23.05;67.95
28312;BME280;15572;48.810;9.148;2022-07-23T02:22:10;98040.66;;;22.98;68.10
28312;BME280;15572;48.810;9.148;2022-07-23T02:27:06;98049.25;;;22.97;68.37
28312;BME280;15572;48.810;9.148;2022-07-23T02:32:03;98074.09;;;22.97;69.03
28312;BME280;15572;48.810;9.148;2022-07-23T02:37:00;98082.91;;;22.99;68.97
28312;BME280;15572;48.810;9.148;2022-07-23T02:41:58;98090.31;;;23.14;67.25
28312;BME280;15572;48.810;9.148;2022-07-23T02:46:55;98107.47;;;22.95;68.44
28312;BME280;15572;48.810;9.148;2022-07-23T02:51:52;98108.31;;;22.91;69.14
28312;BME280;15572;48.810;9.148;2022-07-23T02:56:48;98113.84;;;22.81;70.20
28312;BME280;15572;48.810;9.148;2022-07-23T03:01:47;98120.97;;;22.66;71.21
28312;BME280;15572;48.810;9.148;2022-07-23T03:06:43;98124.84;;;22.60;72.13
28312;BME280;15572;48.810;9.148;2022-07-23T03:11:40;98127.31;;;22.52;72.72
28312;BME280;15572;48.810;9.148;2022-07-23T03:16:36;98138.63;;;22.45;73.54
28312;BME280;15572;48.810;9.148;2022-07-23T03:21:34;98136.97;;;22.44;73.95
28312;BME280;15572;48.810;9.148;2022-07-23T03:26:35;98132.28;;;22.45;74.32
28312;BME280;15572;48.810;9.148;2022-07-23T03:31:32;98120.41;;;22.44;74.78
28312;BME280;15572;48.810;9.148;2022-07-23T03:36:28;98123.47;;;22.38;75.44
28312;BME280;15572;48.810;9.148;2022-07-23T03:41:26;98121.50;;;22.28;76.14
28312;BME280;15572;48.810;9.148;2022-07-23T03:46:23;98127.81;;;22.18;77.03
28312;BME280;15572;48.810;9.148;2022-07-23T03:51:19;98120.38;;;22.14;77.35
28312;BME280;15572;48.810;9.148;2022-07-23T03:56:16;98111.84;;;22.10;77.16
28312;BME280;15572;48.810;9.148;2022-07-23T04:01:13;98116.22;;;22.06;78.26
28312;BME280;15572;48.810;9.148;2022-07-23T04:06:10;98128.09;;;22.12;78.76
28312;BME280;15572;48.810;9.148;2022-07-23T04:11:06;98130.31;;;22.10;77.99
28312;BME280;15572;48.810;9.148;2022-07-23T04:16:03;98130.31;;;22.10;78.30
28312;BME280;15572;48.810;9.148;2022-07-23T04:21:03;98127.56;;;22.15;77.76
28312;BME280;15572;48.810;9.148;2022-07-23T04:25:59;98135.84;;;22.20;77.14
28312;BME280;15572;48.810;9.148;2022-07-23T04:30:56;98131.16;;;22.20;76.86
28312;BME280;15572;48.810;9.148;2022-07-23T04:35:52;98140.53;;;22.24;76.67
28312;BME280;15572;48.810;9.148;2022-07-23T04:40:50;98148.81;;;22.35;76.69
28312;BME280;15572;48.810;9.148;2022-07-23T04:45:47;98132.84;;;22.37;76.67
28312;BME280;15572;48.810;9.148;2022-07-23T04:50:43;98145.22;;;22.39;76.47
28312;BME280;15572;48.810;9.148;2022-07-23T04:55:40;98141.69;;;22.49;75.86
28312;BME280;15572;48.810;9.148;2022-07-23T05:00:37;98140.84;;;22.53;76.06
28312;BME280;15572;48.810;9.148;2022-07-23T05:05:34;98146.63;;;22.57;75.92
28312;BME280;15572;48.810;9.148;2022-07-23T05:10:31;98137.25;;;22.63;75.22
28312;BME280;15572;48.810;9.148;2022-07-23T05:15:28;98143.63;;;22.79;74.76
28312;BME280;15572;48.810;9.148;2022-07-23T05:20:26;98151.09;;;22.88;74.61
28312;BME280;15572;48.810;9.148;2022-07-23T05:25:23;98149.97;;;22.99;74.60
28312;BME280;15572;48.810;9.148;2022-07-23T05:30:20;98182.53;;;23.18;72.91
28312;BME280;15572;48.810;9.148;2022-07-23T05:35:17;98173.97;;;23.19;72.17
28312;BME280;15572;48.810;9.148;2022-07-23T05:40:15;98178.66;;;23.24;72.16
28312;BME280;15572;48.810;9.148;2022-07-23T05:45:12;98180.84;;;23.32;72.28
28312;BME280;15572;48.810;9.148;2022-07-23T05:50:09;98191.63;;;23.48;71.44
28312;BME280;15572;48.810;9.148;2022-07-23T05:55:06;98198.78;;;23.55;68.72
28312;BME280;15572;48.810;9.148;2022-07-23T06:00:06;98209.84;;;23.60;70.41
28312;BME280;15572;48.810;9.148;2022-07-23T06:05:04;98213.69;;;23.59;69.92
28312;BME280;15572;48.810;9.148;2022-07-23T06:10:00;98216.19;;;23.60;69.76
28312;BME280;15572;48.810;9.148;2022-07-23T06:14:57;98197.66;;;23.50;68.79
28312;BME280;15572;48.810;9.148;2022-07-23T06:19:55;98177.78;;;23.54;69.10
28312;BME280;15572;48.810;9.148;2022-07-23T06:24:52;98184.97;;;23.60;69.93
28312;BME280;15572;48.810;9.148;2022-07-23T06:29:48;98194.38;;;23.54;71.47
28312;BME280;15572;48.810;9.148;2022-07-23T06:34:45;98204.88;;;23.52;68.83
28312;BME280;15572;48.810;9.148;2022-07-23T06:39:43;98205.66;;;23.62;66.66
28312;BME280;15572;48.810;9.148;2022-07-23T06:44:39;98213.63;;;23.84;65.86
28312;BME280;15572;48.810;9.148;2022-07-23T06:49:36;98223.56;;;23.85;64.31
28312;BME280;15572;48.810;9.148;2022-07-23T06:54:32;98241.34;;;23.54;65.93
28312;BME280;15572;48.810;9.148;2022-07-23T06:59:30;98259.00;;;23.22;67.46
28312;BME280;15572;48.810;9.148;2022-07-23T07:04:28;98259.53;;;23.04;69.22
28312;BME280;15572;48.810;9.148;2022-07-23T07:09:24;98266.16;;;22.93;71.09
28312;BME280;15572;48.810;9.148;2022-07-23T07:14:21;98279.94;;;22.73;72.64
28312;BME280;15572;48.810;9.148;2022-07-23T07:19:19;98261.66;;;22.56;74.81
28312;BME280;15572;48.810;9.148;2022-07-23T07:24:15;98212.84;;;22.57;76.27
28312;BME280;15572;48.810;9.148;2022-07-23T07:29:12;98245.31;;;22.35;77.57
28312;BME280;15572;48.810;9.148;2022-07-23T07:34:08;98269.25;;;22.24;84.45
28312;BME280;15572;48.810;9.148;2022-07-23T07:39:06;98272.88;;;21.77;89.13
28312;BME280;15572;48.810;9.148;2022-07-23T07:44:05;98276.78;;;21.87;90.81
28312;BME280;15572;48.810;9.148;2022-07-23T07:49:02;98295.53;;;21.90;87.99
28312;BME280;15572;48.810;9.148;2022-07-23T07:53:58;98307.63;;;21.83;90.02
28312;BME280;15572;48.810;9.148;2022-07-23T07:58:56;98322.94;;;21.69;90.73
28312;BME280;15572;48.810;9.148;2022-07-23T08:03:53;98313.91;;;21.74;91.61
28312;BME280;15572;48.810;9.148;2022-07-23T08:08:49;98316.59;;;22.01;90.81
28312;BME280;15572;48.810;9.148;2022-07-23T08:13:46;98324.78;;;21.96;90.32
28312;BME280;15572;48.810;9.148;2022-07-23T08:18:44;98320.31;;;21.84;90.94
28312;BME280;15572;48.810;9.148;2022-07-23T08:23:40;98310.78;;;22.02;88.01
28312;BME280;15572;48.810;9.148;2022-07-23T08:28:37;98309.59;;;22.40;86.33
28312;BME280;15572;48.810;9.148;2022-07-23T08:33:34;98307.00;;;22.76;83.85
28312;BME280;15572;48.810;9.148;2022-07-23T08:38:32;98310.91;;;23.05;79.38
28312;BME280;15572;48.810;9.148;2022-07-23T08:43:31;98307.31;;;23.30;77.96
28312;BME280;15572;48.810;9.148;2022-07-23T08:48:29;98302.94;;;23.54;75.17
28312;BME280;15572;48.810;9.148;2022-07-23T08:53:27;98293.25;;;23.62;74.53
28312;BME280;15572;48.810;9.148;2022-07-23T08:58:25;98292.41;;;23.81;74.09
28312;BME280;15572;48.810;9.148;2022-07-23T09:03:23;98302.28;;;24.18;72.28
28312;BME280;15572;48.810;9.148;2022-07-23T09:08:21;98291.66;;;24.50;66.57
28312;BME280;15572;48.810;9.148;2022-07-23T09:13:40;98304.88;;;24.58;65.77
28312;BME280;15572;48.810;9.148;2022-07-23T09:18:40;98292.84;;;24.88;64.84
28312;BME280;15572;48.810;9.148;2022-07-23T09:23:40;98289.19;;;24.98;59.94
28312;BME280;15572;48.810;9.148;2022-07-23T09:28:49;98289.09;;;25.08;59.78
28312;BME280;15572;48.810;9.148;2022-07-23T09:33:46;98279.84;;;25.23;59.88
28312;BME280;15572;48.810;9.148;2022-07-23T09:38:50;98283.03;;;25.40;58.57
28312;BME280;15572;48.810;9.148;2022-07-23T09:43:48;98283.97;;;25.64;58.01
28312;BME280;15572;48.810;9.148;2022-07-23T09:48:51;98275.22;;;25.76;55.47
28312;BME280;15572;48.810;9.148;2022-07-23T09:53:47;98282.97;;;25.79;55.03
28312;BME280;15572;48.810;9.148;2022-07-23T09:58:45;98284.28;;;25.86;51.90
28312;BME280;15572;48.810;9.148;2022-07-23T10:03:46;98275.91;;;25.91;53.45
28312;BME280;15572;48.810;9.148;2022-07-23T10:08:44;98273.31;;;26.00;53.18
28312;BME280;15572;48.810;9.148;2022-07-23T10:13:44;98273.84;;;26.02;50.43
28312;BME280;15572;48.810;9.148;2022-07-23T10:18:51;98288.41;;;26.13;51.46
28312;BME280;15572;48.810;9.148;2022-07-23T10:24:01;98279.16;;;26.27;49.15
28312;BME280;15572;48.810;9.148;2022-07-23T10:29:08;98287.75;;;26.50;49.86
28312;BME280;15572;48.810;9.148;2022-07-23T10:34:13;98290.13;;;26.56;50.14
28312;BME280;15572;48.810;9.148;2022-07-23T10:39:15;98279.22;;;26.65;49.73
28312;BME280;15572;48.810;9.148;2022-07-23T10:44:16;98283.63;;;26.66;50.94
28312;BME280;15572;48.810;9.148;2022-07-23T10:54:21;98274.34;;;26.94;49.50
28312;BME280;15572;48.810;9.148;2022-07-23T10:59:18;98274.28;;;27.18;47.17
28312;BME280;15572;48.810;9.148;2022-07-23T11:04:15;98262.72;;;27.30;48.30
28312;BME280;15572;48.810;9.148;2022-07-23T11:09:24;98255.97;;;27.95;46.02
28312;BME280;15572;48.810;9.148;2022-07-23T11:20:13;98263.13;;;27.37;49.35
28312;BME280;15572;48.810;9.148;2022-07-23T11:25:14;98269.09;;;27.11;49.53
28312;BME280;15572;48.810;9.148;2022-07-23T11:30:38;98259.59;;;27.31;49.93
28312;BME280;15572;48.810;9.148;2022-07-23T11:35:36;98266.13;;;27.40;49.82
28312;BME280;15572;48.810;9.148;2022-07-23T11:40:35;98260.31;;;28.01;48.23
28312;BME280;15572;48.810;9.148;2022-07-23T11:45:37;98262.75;;;28.85;45.94
28312;BME280;15572;48.810;9.148;2022-07-23T11:50:35;98265.16;;;29.81;44.14
28312;BME280;15572;48.810;9.148;2022-07-23T11:55:34;98264.56;;;30.80;41.47
28312;BME280;15572;48.810;9.148;2022-07-23T12:00:31;98251.44;;;31.66;39.98
28312;BME280;15572;48.810;9.148;2022-07-23T12:05:30;98253.75;;;31.30;40.13
28312;BME280;15572;48.810;9.148;2022-07-23T12:10:28;98248.13;;;30.95;40.01
28312;BME280;15572;48.810;9.148;2022-07-23T12:15:28;98257.00;;;30.72;39.48
28312;BME280;15572;48.810;9.148;2022-07-23T12:20:28;98249.88;;;30.57;39.76
28312;BME280;15572;48.810;9.148;2022-07-23T12:25:27;98238.53;;;30.05;40.46
28312;BME280;15572;48.810;9.148;2022-07-23T12:30:25;98245.63;;;30.60;40.25
28312;BME280;15572;48.810;9.148;2022-07-23T12:35:31;98243.69;;;30.21;41.21
28312;BME280;15572;48.810;9.148;2022-07-23T12:40:30;98252.06;;;30.21;42.10
28312;BME280;15572;48.810;9.148;2022-07-23T12:45:29;98237.69;;;29.96;43.53
28312;BME280;15572;48.810;9.148;2022-07-23T12:50:44;98253.97;;;30.51;41.79
28312;BME280;15572;48.810;9.148;2022-07-23T12:55:44;98255.25;;;30.45;41.79
28312;BME280;15572;48.810;9.148;2022-07-23T13:00:58;98246.19;;;29.91;43.41
28312;BME280;15572;48.810;9.148;2022-07-23T13:05:57;98238.13;;;29.59;42.31
28312;BME280;15572;48.810;9.148;2022-07-23T13:10:54;98250.19;;;29.54;42.10
28312;BME280;15572;48.810;9.148;2022-07-23T13:15:51;98266.16;;;29.18;42.01
28312;BME280;15572;48.810;9.148;2022-07-23T13:20:48;98253.13;;;29.27;42.34
28312;BME280;15572;48.810;9.148;2022-07-23T13:25:47;98254.28;;;29.48;41.76
28312;BME280;15572;48.810;9.148;2022-07-23T13:30:44;98242.34;;;29.87;42.06
28312;BME280;15572;48.810;9.148;2022-07-23T13:35:42;98247.97;;;29.65;43.53
28312;BME280;15572;48.810;9.148;2022-07-23T13:40:40;98244.88;;;29.97;42.90
28312;BME280;15572;48.810;9.148;2022-07-23T13:45:40;98243.66;;;30.69;40.35
28312;BME280;15572;48.810;9.148;2022-07-23T13:50:37;98243.97;;;30.50;41.27
28312;BME280;15572;48.810;9.148;2022-07-23T13:55:34;98225.88;;;30.47;40.99
28312;BME280;15572;48.810;9.148;2022-07-23T14:00:32;98232.34;;;31.00;40.68
28312;BME280;15572;48.810;9.148;2022-07-23T14:05:30;98232.34;;;31.00;38.49
28312;BME280;15572;48.810;9.148;2022-07-23T14:10:27;98216.22;;;30.88;38.48
28312;BME280;15572;48.810;9.148;2022-07-23T14:15:25;98211.94;;;30.73;38.13
28312;BME280;15572;48.810;9.148;2022-07-23T14:20:22;98224.78;;;30.83;38.87
28312;BME280;15572;48.810;9.148;2022-07-23T14:25:20;98207.69;;;30.84;38.48
28312;BME280;15572;48.810;9.148;2022-07-23T14:30:16;98218.69;;;30.55;38.38
28312;BME280;15572;48.810;9.148;2022-07-23T14:35:13;98219.69;;;30.85;37.81
28312;BME280;15572;48.810;9.148;2022-07-23T14:40:09;98213.63;;;31.17;36.42
28312;BME280;15572;48.810;9.148;2022-07-23T14:45:08;98208.88;;;31.18;36.72
28312;BME280;15572;48.810;9.148;2022-07-23T14:50:05;98200.75;;;31.42;34.70
28312;BME280;15572;48.810;9.148;2022-07-23T14:55:02;98214.56;;;31.64;35.11
28312;BME280;15572;48.810;9.148;2022-07-23T14:59:59;98201.72;;;31.63;35.08
28312;BME280;15572;48.810;9.148;2022-07-23T15:04:57;98213.22;;;31.70;34.63
28312;BME280;15572;48.810;9.148;2022-07-23T15:09:56;98208.50;;;30.59;37.27
28312;BME280;15572;48.810;9.148;2022-07-23T15:14:53;98214.34;;;30.40;37.75
28312;BME280;15572;48.810;9.148;2022-07-23T15:19:49;98215.16;;;29.93;39.23
28312;BME280;15572;48.810;9.148;2022-07-23T15:24:47;98212.78;;;29.78;40.03
28312;BME280;15572;48.810;9.148;2022-07-23T15:29:44;98205.53;;;30.64;37.72
28312;BME280;15572;48.810;9.148;2022-07-23T15:34:40;98209.19;;;31.16;37.08
28312;BME280;15572;48.810;9.148;2022-07-23T15:39:37;98203.09;;;31.57;35.24
28312;BME280;15572;48.810;9.148;2022-07-23T15:44:34;98200.63;;;30.78;36.47
28312;BME280;15572;48.810;9.148;2022-07-23T15:49:31;98211.94;;;30.47;38.01
28312;BME280;15572;48.810;9.148;2022-07-23T15:54:28;98210.69;;;30.23;38.31
28312;BME280;15572;48.810;9.148;2022-07-23T15:59:24;98203.53;;;29.91;39.57
28312;BME280;15572;48.810;9.148;2022-07-23T16:04:22;98196.69;;;29.75;40.33
28312;BME280;15572;48.810;9.148;2022-07-23T16:09:18;98202.03;;;29.62;40.90
28312;BME280;15572;48.810;9.148;2022-07-23T16:14:15;98219.53;;;29.54;41.34
28312;BME280;15572;48.810;9.148;2022-07-23T16:19:12;98210.50;;;29.49;41.05
28312;BME280;15572;48.810;9.148;2022-07-23T16:24:10;98213.59;;;29.25;41.61
28312;BME280;15572;48.810;9.148;2022-07-23T16:29:06;98211.19;;;29.10;42.36
28312;BME280;15572;48.810;9.148;2022-07-23T16:34:03;98220.47;;;28.83;43.05
28312;BME280;15572;48.810;9.148;2022-07-23T16:39:00;98216.78;;;28.60;43.50
28312;BME280;15572;48.810;9.148;2022-07-23T16:43:58;98220.63;;;28.51;44.66
28312;BME280;15572;48.810;9.148;2022-07-23T16:48:54;98226.28;;;28.59;44.76
28312;BME280;15572;48.810;9.148;2022-07-23T16:53:51;98224.06;;;28.70;45.52
28312;BME280;15572;48.810;9.148;2022-07-23T16:58:50;98232.75;;;28.82;45.67
28312;BME280;15572;48.810;9.148;2022-07-23T17:03:48;98228.03;;;28.55;46.12
28312;BME280;15572;48.810;9.148;2022-07-23T17:08:45;98227.59;;;28.26;47.55
28312;BME280;15572;48.810;9.148;2022-07-23T17:13:41;98241.28;;;28.22;47.76
28312;BME280;15572;48.810;9.148;2022-07-23T17:18:38;98241.25;;;28.09;48.35
28312;BME280;15572;48.810;9.148;2022-07-23T17:23:36;98237.84;;;28.12;48.89
28312;BME280;15572;48.810;9.148;2022-07-23T17:28:32;98241.03;;;28.05;49.61
28312;BME280;15572;48.810;9.148;2022-07-23T17:33:29;98242.22;;;28.18;49.42
28312;BME280;15572;48.810;9.148;2022-07-23T17:38:25;98240.22;;;27.91;50.45
28312;BME280;15572;48.810;9.148;2022-07-23T17:43:23;98237.00;;;27.84;51.10
28312;BME280;15572;48.810;9.148;2022-07-23T17:48:20;98239.56;;;27.67;51.57
28312;BME280;15572;48.810;9.148;2022-07-23T17:53:16;98237.56;;;27.53;52.07
28312;BME280;15572;48.810;9.148;2022-07-23T17:58:13;98243.75;;;27.32;52.82
28312;BME280;15572;48.810;9.148;2022-07-23T18:03:11;98247.00;;;27.20;52.86
28312;BME280;15572;48.810;9.148;2022-07-23T18:08:07;98248.53;;;27.12;53.29
28312;BME280;15572;48.810;9.148;2022-07-23T18:13:05;98256.28;;;26.97;53.75
28312;BME280;15572;48.810;9.148;2022-07-23T18:18:02;98263.34;;;26.89;54.01
28312;BME280;15572;48.810;9.148;2022-07-23T18:23:00;98256.16;;;26.83;54.54
28312;BME280;15572;48.810;9.148;2022-07-23T18:27:57;98269.84;;;26.79;54.99
28312;BME280;15572;48.810;9.148;2022-07-23T18:32:54;98272.75;;;26.69;55.40
28312;BME280;15572;48.810;9.148;2022-07-23T18:37:51;98283.31;;;26.67;55.44
28312;BME280;15572;48.810;9.148;2022-07-23T18:42:48;98290.59;;;26.63;55.89
28312;BME280;15572;48.810;9.148;2022-07-23T18:47:45;98295.41;;;26.58;56.41
28312;BME280;15572;48.810;9.148;2022-07-23T18:52:41;98307.41;;;26.53;56.42
28312;BME280;15572;48.810;9.148;2022-07-23T18:57:38;98301.91;;;26.48;56.73
28312;BME280;15572;48.810;9.148;2022-07-23T19:02:36;98314.19;;;26.42;56.73
28312;BME280;15572;48.810;9.148;2022-07-23T19:07:32;98318.44;;;26.34;57.36
28312;BME280;15572;48.810;9.148;2022-07-23T19:12:29;98316.84;;;26.28;57.65
28312;BME280;15572;48.810;9.148;2022-07-23T19:17:25;98323.84;;;26.21;58.22
28312;BME280;15572;48.810;9.148;2022-07-23T19:22:23;98325.38;;;26.08;58.99
28312;BME280;15572;48.810;9.148;2022-07-23T19:27:21;98330.13;;;26.03;59.31
28312;BME280;15572;48.810;9.148;2022-07-23T19:32:18;98333.06;;;25.87;60.50
28312;BME280;15572;48.810;9.148;2022-07-23T19:37:14;98338.16;;;25.75;62.17
28312;BME280;15572;48.810;9.148;2022-07-23T19:42:13;98340.19;;;25.65;63.16
28312;BME280;15572;48.810;9.148;2022-07-23T19:47:09;98343.84;;;25.60;64.53
28312;BME280;15572;48.810;9.148;2022-07-23T19:52:06;98362.22;;;25.46;65.82
28312;BME280;15572;48.810;9.148;2022-07-23T19:57:04;98362.31;;;25.36;66.14
28312;BME280;15572;48.810;9.148;2022-07-23T20:02:02;98364.84;;;25.27;66.80
28312;BME280;15572;48.810;9.148;2022-07-23T20:06:58;98371.00;;;25.19;67.45
28312;BME280;15572;48.810;9.148;2022-07-23T20:11:55;98369.13;;;25.09;68.15
28312;BME280;15572;48.810;9.148;2022-07-23T20:16:51;98369.72;;;25.01;68.58
28312;BME280;15572;48.810;9.148;2022-07-23T20:21:49;98384.44;;;24.87;69.62
28312;BME280;15572;48.810;9.148;2022-07-23T20:26:47;98379.78;;;24.77;70.39
28312;BME280;15572;48.810;9.148;2022-07-23T20:31:45;98385.41;;;24.62;71.69
28312;BME280;15572;48.810;9.148;2022-07-23T20:36:43;98385.97;;;24.49;72.78
28312;BME280;15572;48.810;9.148;2022-07-23T20:41:41;98398.16;;;24.43;72.29
28312;BME280;15572;48.810;9.148;2022-07-23T20:46:39;98402.38;;;24.30;71.87
28312;BME280;15572;48.810;9.148;2022-07-23T20:51:36;98415.38;;;24.14;73.21
28312;BME280;15572;48.810;9.148;2022-07-23T20:56:33;98413.41;;;24.05;73.36
28312;BME280;15572;48.810;9.148;2022-07-23T21:01:31;98410.13;;;24.03;73.52
28312;BME280;15572;48.810;9.148;2022-07-23T21:06:27;98419.25;;;24.03;73.99
28312;BME280;15572;48.810;9.148;2022-07-23T21:11:24;98411.50;;;23.95;74.40
28312;BME280;15572;48.810;9.148;2022-07-23T21:16:20;98408.75;;;23.85;75.70
28312;BME280;15572;48.810;9.148;2022-07-23T21:21:18;98409.31;;;23.82;75.83
28312;BME280;15572;48.810;9.148;2022-07-23T21:26:15;98413.72;;;23.83;76.85
28312;BME280;15572;48.810;9.148;2022-07-23T21:31:12;98409.03;;;23.78;77.33
28312;BME280;15572;48.810;9.148;2022-07-23T21:36:09;98413.19;;;23.71;77.39
28312;BME280;15572;48.810;9.148;2022-07-23T21:41:07;98413.72;;;23.73;77.63
28312;BME280;15572;48.810;9.148;2022-07-23T21:46:04;98416.78;;;23.66;79.24
28312;BME280;15572;48.810;9.148;2022-07-23T21:51:01;98415.38;;;23.54;78.82
28312;BME280;15572;48.810;9.148;2022-07-23T21:55:57;98422.22;;;23.41;78.60
28312;BME280;15572;48.810;9.148;2022-07-23T22:00:56;98427.72;;;23.31;78.89
28312;BME280;15572;48.810;9.148;2022-07-23T22:05:53;98422.75;;;23.28;80.05
28312;BME280;15572;48.810;9.148;2022-07-23T22:10:49;98426.88;;;23.20;81.21
28312;BME280;15572;48.810;9.148;2022-07-23T22:15:46;98428.50;;;23.01;82.46
28312;BME280;15572;48.810;9.148;2022-07-23T22:20:44;98427.88;;;22.89;83.61
28312;BME280;15572;48.810;9.148;2022-07-23T22:25:41;98427.25;;;22.72;85.20
28312;BME280;15572;48.810;9.148;2022-07-23T22:30:37;98420.84;;;22.66;86.27
28312;BME280;15572;48.810;9.148;2022-07-23T22:35:34;98426.31;;;22.56;87.05
28312;BME280;15572;48.810;9.148;2022-07-23T22:40:32;98425.13;;;22.37;88.12
28312;BME280;15572;48.810;9.148;2022-07-23T22:45:28;98424.22;;;22.26;89.35
28312;BME280;15572;48.810;9.148;2022-07-23T22:50:25;98426.97;;;22.21;90.14
28312;BME280;15572;48.810;9.148;2022-07-23T22:55:21;98417.44;;;22.02;90.93
28312;BME280;15572;48.810;9.148;2022-07-23T23:00:19;98414.88;;;21.90;89.12
28312;BME280;15572;48.810;9.148;2022-07-23T23:05:16;98419.75;;;21.83;89.00
28312;BME280;15572;48.810;9.148;2022-07-23T23:10:12;98411.63;;;21.66;90.29
28312;BME280;15572;48.810;9.148;2022-07-23T23:15:09;98422.81;;;21.55;91.53
28312;BME280;15572;48.810;9.148;2022-07-23T23:20:08;98427.22;;;21.56;91.28
28312;BME280;15572;48.810;9.148;2022-07-23T23:25:06;98423.22;;;21.36;92.65
28312;BME280;15572;48.810;9.148;2022-07-23T23:30:03;98417.41;;;21.38;93.36
28312;BME280;15572;48.810;9.148;2022-07-23T23:35:00;98416.53;;;21.32;93.42
28312;BME280;15572;48.810;9.148;2022-07-23T23:39:58;98424.50;;;21.29;93.69
28312;BME280;15572;48.810;9.148;2022-07-23T23:44:54;98419.31;;;21.11;94.47
28312;BME280;15572;48.810;9.148;2022-07-23T23:49:51;98423.03;;;20.99;94.82
28312;BME280;15572;48.810;9.148;2022-07-23T23:54:47;98421.28;;;20.88;94.66
28312;BME280;15572;48.810;9.148;2022-07-23T23:59:45;98430.16;;;20.95;96.06
